Time;durP1;ratioP1;P1;durP2;ratioP2;P2;SDS_P1;SDS_P2;PMS_P1;PMS_P2;Temp;Humidity;BMP_temperature;BMP_pressure;BME280_temperature;BME280_humidity;BME280_pressure;Samples;Min_cycle;Max_cycle;Signal;HPM_P1;HPM_P2
2022/08/25 00:01:13;;;;;;;21.00;13.07;;;18.70;99.90;;;;;;4956692;28;20518;-62
2022/08/25 00:03:43;;;;;;;24.88;13.82;;;18.70;99.90;;;;;;4956459;28;20035;-75
2022/08/25 00:06:09;;;;;;;22.25;15.15;;;18.70;99.90;;;;;;4956158;28;20402;-75
2022/08/25 00:08:36;;;;;;;25.27;15.05;;;18.70;99.90;;;;;;4955464;28;20098;-76
2022/08/25 00:11:17;;;;;;;19.25;11.98;;;18.70;99.90;;;;;;4955839;28;20482;-76
2022/08/25 00:13:47;;;;;;;19.73;12.75;;;18.70;99.90;;;;;;4952827;29;20118;-71
2022/08/25 00:16:15;;;;;;;17.52;11.23;;;18.80;99.90;;;;;;4956230;28;20029;-76
2022/08/25 00:18:46;;;;;;;19.30;11.50;;;18.80;99.90;;;;;;4956533;28;20031;-76
2022/08/25 00:21:13;;;;;;;18.13;11.45;;;18.80;99.90;;;;;;4955753;28;20047;-77
2022/08/25 00:23:39;;;;;;;16.52;11.18;;;18.80;99.90;;;;;;4956431;28;20384;-76
2022/08/25 00:26:05;;;;;;;17.58;10.60;;;18.80;99.90;;;;;;4956289;28;20024;-68
2022/08/25 00:28:31;;;;;;;16.15;10.20;;;18.80;99.90;;;;;;4956246;28;20023;-76
2022/08/25 00:30:57;;;;;;;19.65;10.15;;;18.80;99.90;;;;;;4956601;28;20347;-66
2022/08/25 00:33:25;;;;;;;17.88;11.10;;;18.80;99.90;;;;;;4956341;28;20359;-73
2022/08/25 00:35:51;;;;;;;17.40;10.77;;;18.80;99.90;;;;;;4956288;28;20028;-73
2022/08/25 00:38:17;;;;;;;16.65;9.40;;;18.80;99.90;;;;;;4987059;28;20035;-77
2022/08/25 00:40:44;;;;;;;20.70;10.55;;;18.80;99.90;;;;;;4955994;28;20038;-75
2022/08/25 00:43:12;;;;;;;19.17;10.27;;;18.90;99.90;;;;;;4955896;28;20059;-76
2022/08/25 00:45:39;;;;;;;16.75;10.05;;;18.90;99.90;;;;;;4956059;28;20067;-70
2022/08/25 00:48:05;;;;;;;18.63;11.45;;;18.90;99.90;;;;;;4955883;28;20489;-65
2022/08/25 00:50:33;;;;;;;15.82;11.07;;;18.70;99.90;;;;;;4955872;28;20031;-77
2022/08/25 00:53:02;;;;;;;15.75;10.77;;;18.60;99.90;;;;;;4954017;28;20110;-73
2022/08/25 00:55:34;;;;;;;20.45;11.50;;;18.60;99.90;;;;;;4950472;28;20102;-77
2022/08/25 00:58:18;;;;;;;16.65;10.43;;;18.70;99.90;;;;;;4985617;28;20536;-76
2022/08/25 01:00:48;;;;;;;18.90;11.15;;;18.60;99.90;;;;;;4954361;28;20027;-76
2022/08/25 01:03:17;;;;;;;18.45;11.88;;;18.60;99.90;;;;;;4954210;28;20046;-77
2022/08/25 01:05:44;;;;;;;24.90;11.15;;;18.60;99.90;;;;;;4954456;28;20015;-63
2022/08/25 01:08:11;;;;;;;22.25;11.52;;;18.60;99.90;;;;;;4954174;28;20035;-70
2022/08/25 01:10:41;;;;;;;18.40;11.60;;;18.60;99.90;;;;;;4954116;28;20094;-72
2022/08/25 01:13:32;;;;;;;22.25;11.95;;;18.60;99.90;;;;;;4954023;28;20081;-68
2022/08/25 01:15:59;;;;;;;22.60;11.50;;;18.70;99.90;;;;;;4954131;28;20386;-63
2022/08/25 01:18:26;;;;;;;16.27;11.05;;;18.70;99.90;;;;;;4954432;28;20030;-68
2022/08/25 01:20:54;;;;;;;18.17;11.65;;;18.70;99.90;;;;;;4953947;28;20054;-73
2022/08/25 01:23:21;;;;;;;21.67;11.32;;;18.70;99.90;;;;;;4953722;28;20389;-72
2022/08/25 01:26:30;;;;;;;20.83;12.13;;;18.60;99.90;;;;;;4953962;29;20031;-76
2022/08/25 01:31:42;;;;;;;17.25;10.80;;;18.70;99.90;;;;;;4970812;28;20114;-73
2022/08/25 01:34:11;;;;;;;21.73;10.80;;;18.80;99.90;;;;;;4970720;28;20453;-72
2022/08/25 01:36:36;;;;;;;20.70;11.25;;;18.80;99.90;;;;;;4970889;28;20114;-65
2022/08/25 01:39:03;;;;;;;23.13;11.02;;;18.80;99.90;;;;;;4970474;28;20613;-71
2022/08/25 01:41:58;;;;;;;20.90;11.68;;;18.80;99.90;;;;;;4970001;28;20474;-62
2022/08/25 01:44:24;;;;;;;16.73;10.90;;;18.90;99.90;;;;;;4984855;28;20059;-70
2022/08/25 01:46:51;;;;;;;18.00;11.80;;;18.90;99.90;;;;;;4970590;28;20039;-64
2022/08/25 01:49:17;;;;;;;17.58;11.35;;;18.80;99.90;;;;;;4970525;28;20110;-77
2022/08/25 01:51:49;;;;;;;18.50;10.65;;;18.70;99.90;;;;;;4969830;28;20102;-62
2022/08/25 01:54:15;;;;;;;18.02;11.90;;;18.70;99.90;;;;;;4966596;28;20085;-74
2022/08/25 01:56:42;;;;;;;18.38;12.23;;;18.60;99.90;;;;;;4970520;28;20030;-64
2022/08/25 01:59:08;;;;;;;20.02;11.27;;;18.60;99.90;;;;;;4965407;28;20035;-62
2022/08/25 02:01:34;;;;;;;16.70;11.07;;;18.60;99.90;;;;;;4953667;28;20027;-71
2022/08/25 02:04:00;;;;;;;21.23;12.73;;;18.60;99.90;;;;;;4954834;29;20398;-76
2022/08/25 02:06:32;;;;;;;23.40;12.65;;;18.60;99.90;;;;;;4955100;28;20078;-73
2022/08/25 02:09:00;;;;;;;;;;;18.50;99.90;;;;;;4954451;28;20032;-76
2022/08/25 02:11:26;;;;;;;18.85;12.00;;;18.50;99.90;;;;;;4966238;28;19913;-77
2022/08/25 02:13:53;;;;;;;20.10;12.13;;;18.40;99.90;;;;;;4955825;28;20055;-77
2022/08/25 02:16:29;;;;;;;20.13;12.80;;;18.40;99.90;;;;;;4954672;28;20031;-77
2022/08/25 02:18:56;;;;;;;20.85;12.35;;;18.40;99.90;;;;;;4954779;28;20019;-77
2022/08/25 02:21:22;;;;;;;22.10;12.15;;;18.40;99.90;;;;;;4954629;28;20027;-72
2022/08/25 02:23:48;;;;;;;19.00;12.13;;;18.40;99.90;;;;;;4953972;28;20114;-77
2022/08/25 02:26:17;;;;;;;22.45;13.50;;;18.50;99.90;;;;;;4954274;28;20106;-76
2022/08/25 02:28:45;;;;;;;20.13;12.40;;;18.40;99.90;;;;;;4954327;28;20038;-77
2022/08/25 02:31:11;;;;;;;21.10;13.38;;;18.40;99.90;;;;;;4954562;28;20102;-75
2022/08/25 02:33:37;;;;;;;21.70;12.55;;;18.40;99.90;;;;;;4957647;28;20067;-76
2022/08/25 02:36:04;;;;;;;23.02;13.65;;;18.40;99.90;;;;;;4958322;28;20055;-78
2022/08/25 02:38:30;;;;;;;19.25;12.20;;;18.50;99.90;;;;;;4958211;28;20117;-76
2022/08/25 02:40:57;;;;;;;24.73;13.32;;;18.50;99.90;;;;;;4958142;28;20107;-76
2022/08/25 02:43:24;;;;;;;19.63;11.90;;;18.60;99.90;;;;;;4957847;28;20482;-77
2022/08/25 02:45:51;;;;;;;18.33;12.18;;;18.60;99.90;;;;;;4957924;28;20097;-76
2022/08/25 02:48:18;;;;;;;23.90;11.80;;;18.60;99.90;;;;;;4957885;28;20031;-76
2022/08/25 02:50:50;;;;;;;18.52;12.20;;;18.60;99.90;;;;;;4957931;28;20027;-77
2022/08/25 02:53:17;;;;;;;20.50;12.73;;;18.60;99.90;;;;;;4958068;28;20027;-77
2022/08/25 02:55:42;;;;;;;19.58;12.70;;;18.60;99.90;;;;;;4957798;28;20031;-76
2022/08/25 02:58:09;;;;;;;18.75;12.50;;;18.60;99.90;;;;;;4958159;28;20034;-77
2022/08/25 03:00:35;;;;;;;17.38;11.38;;;18.60;99.90;;;;;;4958102;28;20026;-75
2022/08/25 03:03:01;;;;;;;19.38;13.20;;;18.60;99.90;;;;;;4957454;28;20039;-77
2022/08/25 03:05:27;;;;;;;23.42;12.63;;;18.50;99.90;;;;;;4957957;28;20510;-74
2022/08/25 03:07:53;;;;;;;21.40;13.00;;;18.50;99.90;;;;;;4957355;28;20114;-76
2022/08/25 03:10:19;;;;;;;23.52;13.95;;;18.40;99.90;;;;;;4957072;28;20374;-77
2022/08/25 03:12:45;;;;;;;20.02;13.88;;;18.30;99.90;;;;;;4957560;28;20031;-76
2022/08/25 03:15:15;;;;;;;23.20;14.00;;;18.20;99.90;;;;;;4956829;28;20430;-76
2022/08/25 03:17:43;;;;;;;21.55;13.90;;;18.20;99.90;;;;;;4957497;28;20023;-76
2022/08/25 03:20:09;;;;;;;23.25;14.00;;;18.10;99.90;;;;;;4967797;28;20351;-75
2022/08/25 03:22:35;;;;;;;22.65;14.40;;;18.00;99.90;;;;;;4956406;28;20049;-76
2022/08/25 03:27:48;;;;;;;24.98;16.02;;;18.10;99.90;;;;;;4956010;28;20041;-73
2022/08/25 03:30:14;;;;;;;19.45;13.07;;;18.10;99.90;;;;;;4957047;28;20035;-74
2022/08/25 03:32:41;;;;;;;27.15;14.23;;;18.10;99.90;;;;;;4961444;28;20031;-73
2022/08/25 03:35:08;;;;;;;22.10;14.25;;;18.20;99.90;;;;;;4957215;28;20027;-72
2022/08/25 03:37:35;;;;;;;23.33;13.85;;;18.20;99.90;;;;;;4956201;28;20031;-75
2022/08/25 03:40:05;;;;;;;23.42;13.55;;;18.20;99.90;;;;;;4957026;28;20509;-76
2022/08/25 03:42:32;;;;;;;27.10;15.32;;;18.20;99.90;;;;;;4955573;29;20031;-76
2022/08/25 03:44:58;;;;;;;25.90;14.32;;;18.20;99.90;;;;;;4956149;28;20074;-63
2022/08/25 03:47:25;;;;;;;22.38;13.90;;;18.20;99.90;;;;;;4956279;28;20114;-78
2022/08/25 03:49:51;;;;;;;22.42;14.30;;;18.20;99.90;;;;;;4956420;28;20058;-67
2022/08/25 03:52:17;;;;;;;22.00;13.07;;;18.20;99.90;;;;;;4956500;28;20114;-63
2022/08/25 03:54:43;;;;;;;23.55;14.13;;;18.30;99.90;;;;;;4956255;28;20061;-76
2022/08/25 03:57:09;;;;;;;24.17;14.85;;;18.30;99.90;;;;;;4956145;28;20054;-76
2022/08/25 03:59:37;;;;;;;23.35;13.73;;;18.20;99.90;;;;;;4956536;28;20023;-76
2022/08/25 04:02:04;;;;;;;27.50;15.57;;;18.30;99.90;;;;;;4956226;28;20031;-76
2022/08/25 04:04:30;;;;;;;25.63;13.93;;;18.20;99.90;;;;;;4955771;29;20030;-77
2022/08/25 04:06:57;;;;;;;23.60;15.65;;;18.20;99.90;;;;;;4955874;28;20118;-76
2022/08/25 04:09:23;;;;;;;19.83;13.35;;;18.20;99.90;;;;;;4956008;28;20029;-77
2022/08/25 04:11:50;;;;;;;22.70;14.48;;;18.30;99.90;;;;;;4954804;28;20058;-76
2022/08/25 04:14:16;;;;;;;25.95;15.32;;;18.30;99.90;;;;;;4955857;28;20074;-76
2022/08/25 04:16:42;;;;;;;21.42;13.32;;;18.30;99.90;;;;;;4955693;28;20426;-76
2022/08/25 04:19:09;;;;;;;21.30;13.77;;;18.30;99.90;;;;;;4955432;28;20034;-74
2022/08/25 04:21:37;;;;;;;22.27;13.48;;;18.30;99.90;;;;;;4969576;28;20118;-76
2022/08/25 04:24:04;;;;;;;23.27;15.23;;;18.40;99.90;;;;;;4956382;28;20398;-76
2022/08/25 04:26:50;;;;;;;19.05;13.68;;;18.50;99.90;;;;;;4955948;28;20420;-76
2022/08/25 04:29:19;;;;;;;22.52;14.45;;;18.60;99.90;;;;;;4959868;28;20441;-77
2022/08/25 04:31:48;;;;;;;21.58;13.95;;;18.60;99.90;;;;;;4960976;28;20036;-77
2022/08/25 04:34:13;;;;;;;22.55;14.77;;;18.70;99.90;;;;;;4963166;28;20023;-77
2022/08/25 04:36:39;;;;;;;20.95;13.68;;;18.70;99.90;;;;;;4960954;28;20035;-76
2022/08/25 04:39:05;;;;;;;28.10;14.50;;;18.60;99.90;;;;;;4964307;28;20101;-77
2022/08/25 04:41:31;;;;;;;20.35;11.93;;;18.70;99.90;;;;;;4968336;28;20039;-74
2022/08/25 04:43:59;;;;;;;23.42;13.25;;;18.80;99.90;;;;;;4965135;28;20020;-76
2022/08/25 04:46:28;;;;;;;22.45;13.20;;;18.90;99.90;;;;;;4959031;29;20019;-76
2022/08/25 04:48:56;;;;;;;22.77;13.63;;;19.00;99.90;;;;;;4973602;28;20050;-75
2022/08/25 04:51:26;;;;;;;22.00;13.00;;;19.20;99.90;;;;;;4969883;28;20035;-77
2022/08/25 04:53:53;;;;;;;20.48;12.57;;;19.20;99.90;;;;;;4962948;28;20034;-77
2022/08/25 04:56:23;;;;;;;23.70;14.43;;;19.80;99.90;;;;;;4972821;28;20008;-77
2022/08/25 04:58:50;;;;;;;21.35;12.27;;;20.20;99.90;;;;;;4972988;28;20057;-67
2022/08/25 05:01:20;;;;;;;20.40;12.38;;;20.70;99.90;;;;;;4979385;28;20034;-77
2022/08/25 05:03:50;;;;;;;18.30;11.52;;;21.10;99.90;;;;;;4967962;28;20042;-77
2022/08/25 05:06:17;;;;;;;21.02;12.40;;;21.50;99.90;;;;;;4962812;28;20035;-77
2022/08/25 05:08:43;;;;;;;22.70;12.32;;;21.90;99.90;;;;;;4958973;28;20038;-77
2022/08/25 05:11:16;;;;;;;21.20;12.52;;;22.00;99.90;;;;;;4963552;28;20082;-77
2022/08/25 05:13:43;;;;;;;20.80;12.98;;;22.20;99.90;;;;;;4961917;28;20493;-73
2022/08/25 05:16:09;;;;;;;22.52;14.02;;;21.50;99.90;;;;;;4958075;28;20102;-77
2022/08/25 05:18:35;;;;;;;22.60;12.43;;;21.40;99.90;;;;;;4954710;28;20489;-78
2022/08/25 05:21:03;;;;;;;20.70;11.75;;;21.30;99.90;;;;;;4955791;28;20148;-75
2022/08/25 05:23:29;;;;;;;26.98;12.52;;;21.20;99.90;;;;;;4957279;28;20113;-77
2022/08/25 05:25:55;;;;;;;26.85;12.80;;;21.30;99.90;;;;;;4959776;28;20466;-76
2022/08/25 05:28:21;;;;;;;23.48;14.85;;;21.20;99.90;;;;;;4957818;28;20023;-77
2022/08/25 05:30:50;;;;;;;22.75;13.45;;;21.10;99.90;;;;;;4956139;28;20056;-76
2022/08/25 05:33:16;;;;;;;20.60;13.55;;;21.30;99.90;;;;;;4957134;28;20029;-77
2022/08/25 05:35:42;;;;;;;21.58;13.77;;;21.20;99.90;;;;;;4954893;28;20381;-76
2022/08/25 05:38:09;;;;;;;22.90;13.32;;;21.20;99.90;;;;;;4954735;28;20032;-77
2022/08/25 05:40:35;;;;;;;22.88;12.77;;;21.30;99.90;;;;;;4954931;28;20045;-77
2022/08/25 05:43:01;;;;;;;21.42;11.52;;;21.30;99.90;;;;;;4954665;28;20051;-77
2022/08/25 05:45:27;;;;;;;22.88;12.80;;;21.30;99.90;;;;;;4954379;28;20051;-76
2022/08/25 05:47:53;;;;;;;23.88;13.45;;;21.70;99.90;;;;;;4954750;28;20111;-75
2022/08/25 05:50:19;;;;;;;22.50;13.95;;;22.00;99.90;;;;;;4955031;28;20024;-76
2022/08/25 05:52:45;;;;;;;18.10;11.95;;;22.00;99.90;;;;;;4954176;28;20031;-74
2022/08/25 05:55:11;;;;;;;26.40;14.02;;;21.00;99.90;;;;;;4952872;28;20027;-76
2022/08/25 05:57:37;;;;;;;25.33;13.20;;;22.20;99.90;;;;;;4953875;28;20043;-77
2022/08/25 06:00:07;;;;;;;24.15;14.18;;;22.30;99.90;;;;;;4954053;28;20598;-77
2022/08/25 06:02:46;;;;;;;20.55;12.63;;;22.30;99.90;;;;;;4954440;28;20047;-77
2022/08/25 06:05:21;;;;;;;20.75;12.88;;;22.50;99.90;;;;;;4957802;28;20023;-76
2022/08/25 06:07:48;;;;;;;22.13;12.07;;;22.40;99.90;;;;;;4953224;28;20026;-77
2022/08/25 06:10:16;;;;;;;21.33;12.02;;;22.40;99.90;;;;;;4954665;28;20034;-78
2022/08/25 06:12:44;;;;;;;19.05;12.50;;;22.30;99.90;;;;;;4954038;28;20023;-73
2022/08/25 06:15:13;;;;;;;21.50;12.63;;;22.50;99.90;;;;;;4954051;28;20043;-76
2022/08/25 06:17:41;;;;;;;24.70;13.70;;;22.50;99.90;;;;;;4955161;28;20056;-77
2022/08/25 06:20:09;;;;;;;20.75;12.82;;;22.60;99.90;;;;;;4955251;28;20027;-77
2022/08/25 06:22:36;;;;;;;19.60;12.52;;;22.50;99.90;;;;;;4954244;28;20058;-77
2022/08/25 06:25:03;;;;;;;21.13;12.05;;;22.60;99.90;;;;;;4954698;28;20087;-76
2022/08/25 06:27:29;;;;;;;17.42;11.10;;;22.70;99.90;;;;;;4954028;28;20034;-77
2022/08/25 06:29:55;;;;;;;19.65;11.43;;;22.90;99.90;;;;;;4954321;28;20369;-75
2022/08/25 06:32:21;;;;;;;20.38;11.90;;;23.10;99.90;;;;;;4954597;28;20030;-75
2022/08/25 06:34:47;;;;;;;18.85;11.80;;;23.10;99.90;;;;;;4954969;28;20453;-77
2022/08/25 06:37:13;;;;;;;19.77;11.05;;;23.10;99.90;;;;;;4954110;28;20108;-77
2022/08/25 06:39:38;;;;;;;21.95;12.00;;;23.20;99.90;;;;;;4954186;28;20031;-77
2022/08/25 06:42:04;;;;;;;17.60;11.75;;;23.20;99.90;;;;;;4953740;28;20068;-77
2022/08/25 06:44:30;;;;;;;17.42;10.45;;;23.20;99.90;;;;;;4956007;28;20043;-76
2022/08/25 06:46:56;;;;;;;20.60;11.60;;;23.40;99.90;;;;;;4958299;28;20497;-77
2022/08/25 06:49:26;;;;;;;17.45;10.07;;;;;;;;;;4955303;28;20039;-73
2022/08/25 06:51:52;;;;;;;21.35;9.63;;;23.50;99.90;;;;;;4954003;28;20027;-77
2022/08/25 06:54:18;;;;;;;18.15;9.80;;;23.50;99.90;;;;;;4953290;28;20031;-75
2022/08/25 06:56:44;;;;;;;16.05;9.10;;;23.70;99.90;;;;;;4955056;28;20027;-73
2022/08/25 06:59:10;;;;;;;17.98;8.98;;;23.80;99.90;;;;;;4953253;28;20038;-76
2022/08/25 07:01:36;;;;;;;12.93;8.00;;;23.80;99.90;;;;;;4953615;28;20418;-77
2022/08/25 07:04:04;;;;;;;19.27;9.50;;;23.80;99.90;;;;;;4963770;28;20039;-77
2022/08/25 07:06:34;;;;;;;14.45;9.15;;;23.80;99.90;;;;;;4951913;28;20050;-71
2022/08/25 07:09:00;;;;;;;13.85;8.50;;;23.80;99.90;;;;;;4952351;28;20031;-74
2022/08/25 07:11:27;;;;;;;17.73;9.23;;;24.00;99.90;;;;;;4952888;28;20042;-71
2022/08/25 07:13:53;;;;;;;14.15;8.35;;;23.90;99.90;;;;;;4954054;28;20433;-77
2022/08/25 07:16:19;;;;;;;14.27;8.30;;;24.00;99.90;;;;;;4952993;28;20133;-63
2022/08/25 07:18:46;;;;;;;13.25;8.13;;;24.30;99.90;;;;;;4954903;28;20031;-64
2022/08/25 07:21:13;;;;;;;14.45;8.23;;;24.50;99.90;;;;;;4957282;28;20085;-76
2022/08/25 07:23:39;;;;;;;14.60;8.70;;;24.40;99.90;;;;;;4959048;28;20026;-76
2022/08/25 07:26:24;;;;;;;13.45;8.38;;;24.40;99.90;;;;;;4956183;28;20062;-74
2022/08/25 07:28:50;;;;;;;13.32;8.10;;;;;;;;;;4957093;28;20629;-75
2022/08/25 07:31:16;;;;;;;11.15;6.95;;;24.70;99.90;;;;;;4957043;29;20027;-76
2022/08/25 07:35:14;;;;;;;12.32;6.88;;;24.70;99.90;;;;;;4956542;28;20110;-76
2022/08/25 07:36:30;;;;;;;14.05;7.60;;;24.60;99.90;;;;;;4956166;28;20106;-74
2022/08/25 07:38:57;;;;;;;12.73;7.93;;;24.80;99.90;;;;;;4956804;28;20027;-76
2022/08/25 07:41:25;;;;;;;11.70;6.95;;;;;;;;;;4957277;28;20023;-77
2022/08/25 07:43:51;;;;;;;13.38;7.32;;;24.90;99.90;;;;;;4967672;28;20473;-77
2022/08/25 07:46:17;;;;;;;13.13;6.97;;;25.30;99.90;;;;;;4957878;28;20389;-76
2022/08/25 07:48:43;;;;;;;14.23;7.95;;;25.80;99.90;;;;;;4963811;28;20041;-74
2022/08/25 07:51:11;;;;;;;10.18;6.40;;;25.80;99.90;;;;;;4957560;28;20462;-76
2022/08/25 07:53:37;;;;;;;12.65;7.32;;;26.10;99.90;;;;;;4956261;28;20027;-75
2022/08/25 07:56:09;;;;;;;14.70;7.22;;;;;;;;;;4956841;28;20031;-72
2022/08/25 07:58:35;;;;;;;;;;;;;;;;;;4957103;28;20482;-76
2022/08/25 08:01:01;;;;;;;15.80;7.50;;;;;;;;;;4960647;28;19954;-76
2022/08/25 08:03:28;;;;;;;11.30;7.03;;;26.40;99.90;;;;;;4950920;29;20039;-76
2022/08/25 08:05:55;;;;;;;15.30;7.93;;;26.70;99.90;;;;;;4953768;28;20019;-76
2022/08/25 08:08:21;;;;;;;11.95;6.45;;;26.70;99.90;;;;;;4957037;28;20035;-76
2022/08/25 08:10:48;;;;;;;13.00;6.43;;;26.80;99.90;;;;;;4956625;28;20043;-76
2022/08/25 08:13:14;;;;;;;14.10;6.85;;;26.50;99.90;;;;;;4956192;28;20039;-77
2022/08/25 08:15:42;;;;;;;13.80;7.30;;;26.60;99.90;;;;;;4955990;28;20034;-67
2022/08/25 08:18:09;;;;;;;12.27;6.82;;;26.70;99.90;;;;;;4955731;28;20071;-76
2022/08/25 08:20:35;;;;;;;11.52;7.18;;;26.90;99.90;;;;;;4955995;28;20363;-63
2022/08/25 08:23:02;;;;;;;13.27;6.95;;;26.70;99.90;;;;;;4956122;28;20126;-75
2022/08/25 08:25:28;;;;;;;10.60;6.72;;;26.90;99.90;;;;;;4956422;28;20023;-76
2022/08/25 08:27:55;;;;;;;11.45;7.20;;;27.10;99.90;;;;;;4956271;29;20031;-64
2022/08/25 08:30:21;;;;;;;10.40;6.78;;;27.30;99.90;;;;;;4955519;28;20088;-71
2022/08/25 08:32:48;;;;;;;11.00;6.07;;;27.10;99.90;;;;;;4955729;28;20034;-75
2022/08/25 08:35:17;;;;;;;9.70;6.18;;;27.10;99.90;;;;;;4956140;28;20477;-76
2022/08/25 08:37:46;;;;;;;9.45;5.50;;;27.20;99.90;;;;;;4955656;28;20034;-76
2022/08/25 08:40:18;;;;;;;11.80;6.97;;;27.20;99.90;;;;;;4955888;28;20019;-73
2022/08/25 08:42:51;;;;;;;10.30;6.38;;;27.00;99.90;;;;;;4954894;28;20114;-76
2022/08/25 08:45:26;;;;;;;9.20;6.35;;;27.30;99.90;;;;;;4963509;28;20102;-75
2022/08/25 08:48:38;;;;;;;13.85;7.22;;;27.20;99.90;;;;;;4955238;28;20112;-75
2022/08/25 08:51:20;;;;;;;14.18;6.65;;;27.20;99.90;;;;;;4878330;29;20522;-75
2022/08/25 08:53:55;;;;;;;12.35;6.32;;;27.20;99.90;;;;;;4877395;29;20045;-76
2022/08/25 08:56:42;;;;;;;9.15;5.88;;;27.30;99.90;;;;;;4877189;29;20052;-76
2022/08/25 08:59:15;;;;;;;14.98;7.28;;;27.50;99.90;;;;;;4883061;29;20037;-76
2022/08/25 09:01:48;;;;;;;16.65;7.13;;;27.40;99.90;;;;;;4877443;29;20399;-76
2022/08/25 09:04:22;;;;;;;10.40;6.75;;;27.30;99.90;;;;;;4877059;29;20075;-76
2022/08/25 09:06:49;;;;;;;13.75;6.53;;;27.20;99.90;;;;;;4877486;29;20805;-74
2022/08/25 09:09:25;;;;;;;10.88;6.85;;;27.10;99.90;;;;;;4873485;29;20025;-76
2022/08/25 09:12:11;;;;;;;12.15;7.07;;;27.20;99.90;;;;;;4874796;29;20045;-73
2022/08/25 09:14:56;;;;;;;13.35;7.43;;;27.30;99.90;;;;;;4876782;29;20037;-76
2022/08/25 09:17:40;;;;;;;13.05;6.55;;;;;;;;;;4876752;29;20048;-74
2022/08/25 09:20:27;;;;;;;10.80;6.95;;;27.70;99.90;;;;;;4875642;29;20068;-76
2022/08/25 09:23:18;;;;;;;11.05;6.45;;;27.60;99.90;;;;;;4876703;29;20037;-76
2022/08/25 09:26:14;;;;;;;12.65;7.20;;;27.60;99.90;;;;;;4876612;29;20048;-76
2022/08/25 09:28:59;;;;;;;10.82;6.50;;;27.60;99.90;;;;;;4931985;28;20113;-75
2022/08/25 09:31:31;;;;;;;11.68;7.50;;;27.40;99.90;;;;;;4955049;28;20070;-75
2022/08/25 09:34:00;;;;;;;12.05;7.68;;;27.60;99.90;;;;;;4955120;28;20038;-76
2022/08/25 09:36:26;;;;;;;14.93;8.07;;;27.30;99.90;;;;;;4953982;28;20023;-76
2022/08/25 09:38:53;;;;;;;12.10;7.10;;;27.60;99.90;;;;;;4954216;28;20035;-76
2022/08/25 09:41:40;;;;;;;11.75;7.68;;;27.90;99.90;;;;;;4953549;28;20359;-76
2022/08/25 09:44:26;;;;;;;11.65;7.38;;;27.80;99.90;;;;;;4954373;29;20059;-75
2022/08/25 09:47:00;;;;;;;14.45;8.45;;;;;;;;;;4954716;28;20027;-76
2022/08/25 09:49:48;;;;;;;11.32;7.43;;;;;;;;;;4954323;29;20102;-74
2022/08/25 09:52:17;;;;;;;10.20;6.93;;;;;;;;;;4953730;28;20039;-76
2022/08/25 09:54:43;;;;;;;12.32;7.53;;;28.30;99.90;;;;;;4954967;28;20027;-76
2022/08/25 09:57:27;;;;;;;14.80;6.53;;;28.30;99.90;;;;;;4954705;28;20107;-75
2022/08/25 09:59:54;;;;;;;11.30;7.53;;;28.40;99.90;;;;;;4953523;28;20019;-75
2022/08/25 10:02:27;;;;;;;12.02;7.15;;;28.60;99.90;;;;;;4954490;28;20093;-76
2022/08/25 10:04:55;;;;;;;15.30;6.63;;;28.30;99.90;;;;;;4954299;28;20038;-75
2022/08/25 10:07:31;;;;;;;12.02;7.35;;;28.50;99.90;;;;;;4954562;28;20031;-75
2022/08/25 10:10:00;;;;;;;12.30;7.00;;;28.60;99.90;;;;;;4953536;28;20031;-75
2022/08/25 10:12:45;;;;;;;14.50;7.75;;;28.50;99.90;;;;;;4953528;28;20111;-76
2022/08/25 10:15:23;;;;;;;19.45;7.55;;;28.40;99.90;;;;;;4949178;29;20098;-76
2022/08/25 10:17:49;;;;;;;11.38;6.95;;;28.20;99.90;;;;;;4953852;28;20037;-76
2022/08/25 10:20:26;;;;;;;11.00;6.53;;;28.20;99.90;;;;;;4954251;28;20106;-76
2022/08/25 10:23:13;;;;;;;14.35;7.65;;;28.00;99.90;;;;;;4954106;28;20200;-76
2022/08/25 10:25:50;;;;;;;8.35;5.88;;;27.70;99.90;;;;;;4954040;28;20028;-76
2022/08/25 10:28:27;;;;;;;11.52;6.95;;;27.60;99.90;;;;;;4953824;28;20027;-76
2022/08/25 10:31:22;;;;;;;11.80;5.90;;;27.60;99.90;;;;;;4953799;28;20521;-63
2022/08/25 10:34:09;;;;;;;9.50;6.25;;;27.40;99.90;;;;;;4953688;28;20023;-72
2022/08/25 10:36:55;;;;;;;11.20;6.60;;;27.50;99.90;;;;;;4954310;28;20429;-62
2022/08/25 10:39:52;;;;;;;12.45;7.63;;;27.90;99.90;;;;;;4952225;28;20429;-72
2022/08/25 10:42:29;;;;;;;10.05;6.53;;;27.50;99.90;;;;;;4954271;28;20047;-75
2022/08/25 10:48:23;;;;;;;14.20;6.75;;;28.70;99.90;;;;;;4954197;28;20518;-63
2022/08/25 10:50:52;;;;;;;11.15;7.10;;;28.70;99.90;;;;;;4953899;28;20023;-76
2022/08/25 10:53:36;;;;;;;11.60;6.78;;;;;;;;;;4955128;28;20028;-76
2022/08/25 10:56:10;;;;;;;12.05;5.55;;;29.20;99.90;;;;;;4957432;28;20027;-75
2022/08/25 10:59:06;;;;;;;10.52;6.25;;;29.20;99.90;;;;;;4957645;28;20031;-75
2022/08/25 11:02:02;;;;;;;12.43;6.50;;;29.20;99.90;;;;;;4936136;29;20051;-74
2022/08/25 11:04:31;;;;;;;8.93;5.50;;;29.20;99.90;;;;;;4935576;29;20048;-76
2022/08/25 11:07:05;;;;;;;8.60;5.63;;;29.30;99.90;;;;;;4936261;29;20513;-75
2022/08/25 11:09:39;;;;;;;9.15;5.95;;;28.80;99.80;;;;;;4935526;29;20036;-71
2022/08/25 11:12:12;;;;;;;10.63;6.00;;;28.70;99.10;;;;;;4936096;29;20335;-75
2022/08/25 11:15:01;;;;;;;9.40;5.65;;;28.70;99.90;;;;;;4935966;29;20126;-66
2022/08/25 11:17:51;;;;;;;9.73;6.07;;;28.90;99.90;;;;;;4934392;29;20066;-76
2022/08/25 11:20:22;;;;;;;9.60;5.93;;;29.10;99.90;;;;;;4935012;29;20099;-75
2022/08/25 11:23:06;;;;;;;9.77;6.38;;;28.80;99.90;;;;;;4919316;29;20134;-76
2022/08/25 11:25:38;;;;;;;7.97;5.57;;;28.60;99.90;;;;;;4935194;29;20099;-63
2022/08/25 11:28:19;;;;;;;10.02;6.32;;;28.50;99.90;;;;;;4934025;29;20566;-64
2022/08/25 11:30:45;;;;;;;11.55;6.97;;;28.60;99.90;;;;;;4932811;29;20060;-73
2022/08/25 11:33:13;;;;;;;13.18;6.35;;;28.50;99.90;;;;;;4934744;29;20047;-75
2022/08/25 11:36:11;;;;;;;10.32;5.75;;;28.30;99.90;;;;;;4931389;29;20119;-76
2022/08/25 11:38:56;;;;;;;9.18;5.22;;;28.00;99.90;;;;;;4913565;29;20032;-74
2022/08/25 11:41:25;;;;;;;11.43;5.88;;;28.20;99.90;;;;;;4947361;29;20039;-76
2022/08/25 11:43:58;;;;;;;9.23;4.93;;;28.30;99.90;;;;;;4937224;29;20043;-74
2022/08/25 11:46:35;;;;;;;9.20;5.70;;;28.20;99.90;;;;;;4938954;29;20110;-73
2022/08/25 11:49:42;;;;;;;11.07;5.38;;;28.40;99.90;;;;;;4934446;28;20557;-74
2022/08/25 11:52:32;;;;;;;7.22;4.97;;;28.60;99.90;;;;;;4891649;29;20049;-74
2022/08/25 11:55:18;;;;;;;8.10;5.28;;;28.80;99.90;;;;;;4896389;29;20032;-72
2022/08/25 11:57:46;;;;;;;7.80;5.03;;;28.80;98.30;;;;;;4896043;29;20036;-74
2022/08/25 12:00:14;;;;;;;9.35;4.85;;;28.70;99.00;;;;;;4896227;29;20112;-72
2022/08/25 12:02:40;;;;;;;7.25;4.88;;;28.90;99.90;;;;;;4894836;29;20140;-72
2022/08/25 12:05:18;;;;;;;10.00;5.18;;;29.00;97.90;;;;;;4895751;29;20115;-76
2022/08/25 12:07:47;;;;;;;9.35;5.30;;;28.90;99.90;;;;;;4896886;29;20041;-75
2022/08/25 12:10:17;;;;;;;11.25;5.35;;;28.70;97.10;;;;;;4902585;29;20459;-76
2022/08/25 12:12:43;;;;;;;8.45;4.85;;;28.90;99.70;;;;;;4896128;29;20498;-78
2022/08/25 12:15:23;;;;;;;11.55;4.22;;;29.00;98.90;;;;;;4886107;29;20085;-75
2022/08/25 12:18:11;;;;;;;10.35;4.50;;;28.80;98.30;;;;;;4892881;29;20037;-72
2022/08/25 12:20:52;;;;;;;9.10;5.32;;;28.70;99.90;;;;;;4895125;29;20043;-75
2022/08/25 12:23:55;;;;;;;7.38;5.05;;;28.60;99.90;;;;;;4894389;29;20051;-74
2022/08/25 12:26:50;;;;;;;8.98;5.30;;;28.70;99.90;;;;;;4891465;29;20100;-75
2022/08/25 12:29:25;;;;;;;8.35;5.43;;;28.50;99.90;;;;;;4907616;29;20044;-64
2022/08/25 12:32:05;;;;;;;7.75;5.60;;;28.50;99.90;;;;;;4913757;29;20032;-74
2022/08/25 12:34:37;;;;;;;10.05;5.25;;;28.40;99.90;;;;;;4927556;29;21188;-74
2022/08/25 12:37:12;;;;;;;9.20;5.47;;;28.40;99.90;;;;;;4949525;28;20111;-75
2022/08/25 12:39:47;;;;;;;8.90;5.82;;;28.40;99.90;;;;;;4954948;28;20027;-75
2022/08/25 12:42:32;;;;;;;9.77;5.78;;;28.50;99.90;;;;;;4954813;28;20571;-70
2022/08/25 12:45:24;;;;;;;7.63;5.38;;;28.80;99.90;;;;;;4964180;28;20043;-64
2022/08/25 12:47:50;;;;;;;;;;;;;;;;;;4955411;28;20438;-76
2022/08/25 12:50:37;;;;;;;9.05;5.45;;;29.20;99.40;;;;;;4954903;28;19994;-66
2022/08/25 12:53:32;;;;;;;7.93;5.32;;;29.20;99.20;;;;;;4943497;29;20046;-76
2022/08/25 12:56:23;;;;;;;8.32;4.80;;;28.90;98.80;;;;;;4952161;29;20378;-77
2022/08/25 12:59:05;;;;;;;11.77;5.60;;;29.00;99.90;;;;;;4954943;28;20371;-77
2022/08/25 13:01:43;;;;;;;7.97;5.07;;;29.00;99.00;;;;;;4984763;28;20019;-77
2022/08/25 13:04:42;;;;;;;9.73;5.32;;;29.00;97.50;;;;;;4943121;29;20053;-78
2022/08/25 13:07:14;;;;;;;9.82;4.65;;;;;;;;;;4945674;28;20528;-65
2022/08/25 13:10:06;;;;;;;12.07;5.30;;;29.50;99.90;;;;;;4948704;29;20039;-77